createdAt,value
2019-04-21T00:00:56.829Z,101099.34
2019-04-21T00:03:27.564Z,101095.06
2019-04-21T00:06:09.482Z,101091.16
2019-04-21T00:08:56.526Z,101089.16
2019-04-21T00:11:09.747Z,101087.30
2019-04-21T00:13:33.184Z,101085.77
2019-04-21T00:15:53.993Z,101083.97
2019-04-21T00:18:38.412Z,101083.63
2019-04-21T00:21:09.843Z,101081.33
2019-04-21T00:23:42.486Z,101079.28
2019-04-21T00:26:09.048Z,101076.03
2019-04-21T00:28:58.130Z,101078.13
2019-04-21T00:31:11.702Z,101083.51
2019-04-21T00:33:30.018Z,101074.61
2019-04-21T00:36:02.102Z,101067.17
2019-04-21T00:38:51.856Z,101071.73
2019-04-21T00:41:13.433Z,101070.36
2019-04-21T00:43:37.489Z,101069.38
2019-04-21T00:46:03.244Z,101068.50
2019-04-21T00:48:42.457Z,101067.77
2019-04-21T00:51:27.547Z,101066.01
2019-04-21T00:53:51.180Z,101066.69
2019-04-21T00:56:34.034Z,101061.34
2019-04-21T00:58:49.862Z,101065.56
2019-04-21T01:01:15.220Z,101057.59
2019-04-21T01:03:46.224Z,101062.27
2019-04-21T01:06:20.146Z,101065.74
2019-04-21T01:08:41.374Z,101058.17
2019-04-21T01:11:16.518Z,101061.42
2019-04-21T01:13:45.568Z,101061.95
2019-04-21T01:16:14.296Z,101065.67
2019-04-21T01:18:41.012Z,101069.44
2019-04-21T01:20:49.647Z,101069.75
2019-04-21T01:23:17.320Z,101074.88
2019-04-21T01:26:00.675Z,101065.56
2019-04-21T01:28:29.055Z,101066.16
2019-04-21T01:31:07.486Z,101072.38
2019-04-21T01:33:39.845Z,101062.55
2019-04-21T01:35:58.379Z,101064.96
2019-04-21T01:38:35.703Z,101063.16
2019-04-21T01:41:08.610Z,101067.31
2019-04-21T01:43:27.588Z,101060.06
2019-04-21T01:45:59.457Z,101059.80
2019-04-21T01:48:26.724Z,101058.34
2019-04-21T01:50:58.156Z,101054.70
2019-04-21T01:53:36.804Z,101054.70
2019-04-21T01:56:16.891Z,101051.18
2019-04-21T01:58:42.805Z,101045.75
2019-04-21T02:01:24.623Z,101043.28
2019-04-21T02:06:21.262Z,101048.75
2019-04-21T02:08:50.982Z,101049.41
2019-04-21T02:11:26.414Z,101054.39
2019-04-21T02:14:00.413Z,101050.28
2019-04-21T02:16:18.198Z,101051.73
2019-04-21T02:18:53.058Z,101044.91
2019-04-21T02:21:09.476Z,101043.61
2019-04-21T02:23:54.337Z,101044.11
2019-04-21T02:26:19.111Z,101038.00
2019-04-21T02:31:28.687Z,101033.24
2019-04-21T02:39:10.471Z,101032.61
2019-04-21T02:41:21.487Z,101035.48
2019-04-21T02:44:02.526Z,101033.01
2019-04-21T02:46:38.192Z,101031.23
2019-04-21T02:48:56.421Z,101026.81
2019-04-21T02:51:27.640Z,101021.67
2019-04-21T02:54:28.768Z,101027.20
2019-04-21T02:56:28.394Z,101022.45
2019-04-21T03:04:18.449Z,101011.52
2019-04-21T03:06:54.155Z,101010.63
2019-04-21T03:09:20.536Z,101010.28
2019-04-21T03:11:53.457Z,101003.80
2019-04-21T03:14:33.186Z,101013.04
2019-04-21T03:19:20.017Z,101004.73
2019-04-21T03:21:50.644Z,101001.50
2019-04-21T03:24:40.264Z,101001.75
2019-04-21T03:26:52.313Z,100994.52
2019-04-21T03:36:56.562Z,100989.81
2019-04-21T03:39:09.520Z,100992.69
2019-04-21T03:41:48.847Z,100987.53
2019-04-21T03:44:14.519Z,100996.80
2019-04-21T03:46:41.376Z,100984.70
2019-04-21T03:49:12.480Z,100986.10
2019-04-21T03:51:43.930Z,100988.93
2019-04-21T03:59:09.971Z,101000.23
2019-04-21T04:04:31.913Z,100994.42
2019-04-21T04:07:04.435Z,100990.23
2019-04-21T04:09:41.836Z,100989.63
2019-04-21T04:14:32.687Z,100983.77
2019-04-21T04:19:26.475Z,100985.64
2019-04-21T04:22:06.023Z,100987.16
2019-04-21T04:25:01.176Z,100990.09
2019-04-21T04:29:26.304Z,100999.31
2019-04-21T04:34:35.946Z,100993.26
2019-04-21T04:37:17.393Z,100995.06
2019-04-21T04:44:59.704Z,100993.11
2019-04-21T04:47:07.341Z,100999.89
2019-04-21T04:54:43.559Z,101000.41
2019-04-21T04:57:13.851Z,101013.63
2019-04-21T04:59:35.443Z,101013.16
2019-04-21T05:02:00.236Z,101008.52
2019-04-21T05:04:29.514Z,101002.17
2019-04-21T05:09:21.470Z,100999.95
2019-04-21T05:11:50.837Z,101002.16
2019-04-21T05:17:02.344Z,100997.80
2019-04-21T05:19:34.975Z,100996.22
2019-04-21T05:22:06.815Z,100992.67
2019-04-21T05:24:10.869Z,100988.66
2019-04-21T05:26:40.214Z,100985.13
2019-04-21T05:29:01.878Z,100992.03
2019-04-21T05:31:50.679Z,100989.37
2019-04-21T05:34:18.498Z,100984.11
2019-04-21T05:36:52.048Z,100985.48
2019-04-21T05:39:37.765Z,100985.27
2019-04-21T05:42:00.794Z,100993.93
2019-04-21T05:44:49.274Z,100994.77
2019-04-21T05:47:20.595Z,100998.08
2019-04-21T05:49:45.169Z,100990.00
2019-04-21T05:52:09.461Z,100992.77
2019-04-21T05:54:52.750Z,100995.03
2019-04-21T05:57:14.365Z,100993.91
2019-04-21T05:59:43.723Z,100996.63
2019-04-21T06:02:23.937Z,100998.47
2019-04-21T06:07:25.686Z,100996.28
2019-04-21T06:09:51.352Z,101000.77
2019-04-21T06:12:14.614Z,100999.78
2019-04-21T06:14:52.075Z,101000.30
2019-04-21T06:17:19.238Z,100995.60
2019-04-21T06:22:07.633Z,100987.45
2019-04-21T06:24:58.390Z,100987.71
2019-04-21T06:27:26.313Z,100985.58
2019-04-21T06:29:46.553Z,100983.47
2019-04-21T06:34:59.124Z,100993.91
2019-04-21T06:37:34.755Z,100986.11
2019-04-21T06:40:03.179Z,100985.55
2019-04-21T06:42:09.065Z,100988.91
2019-04-21T06:44:50.031Z,100989.47
2019-04-21T06:47:16.213Z,100986.06
2019-04-21T06:49:40.475Z,100984.64
2019-04-21T06:52:17.878Z,100985.38
2019-04-21T06:54:45.596Z,100982.92
2019-04-21T06:57:15.164Z,100983.16
2019-04-21T06:59:31.997Z,100977.18
2019-04-21T07:02:28.591Z,100977.84
2019-04-21T07:04:46.941Z,100977.89
2019-04-21T07:07:05.177Z,100981.21
2019-04-21T07:09:41.286Z,100972.70
2019-04-21T07:11:59.692Z,100972.05
2019-04-21T07:14:49.921Z,100973.81
2019-04-21T07:17:05.274Z,100983.19
2019-04-21T07:19:35.241Z,100976.34
2019-04-21T07:22:03.333Z,100963.63
2019-04-21T07:24:31.272Z,100968.20
2019-04-21T07:27:04.210Z,100963.71
2019-04-21T07:29:34.486Z,100957.94
2019-04-21T07:34:33.368Z,100957.61
2019-04-21T07:37:12.688Z,100948.52
2019-04-21T07:39:27.057Z,100951.96
2019-04-21T07:41:54.084Z,100941.28
2019-04-21T07:44:24.288Z,100939.52
2019-04-21T07:46:46.324Z,100938.74
2019-04-21T07:49:32.690Z,100942.30
2019-04-21T07:52:22.282Z,100943.09
2019-04-21T07:54:57.004Z,100936.69
2019-04-21T07:57:11.296Z,100929.52
2019-04-21T07:59:55.109Z,100934.63
2019-04-21T08:02:20.186Z,100929.92
2019-04-21T08:07:21.811Z,100925.73
2019-04-21T08:09:41.224Z,100911.57
2019-04-21T08:12:08.199Z,100924.72
2019-04-21T08:14:43.965Z,100926.00
2019-04-21T08:17:09.541Z,100923.15
2019-04-21T08:19:35.876Z,100918.39
2019-04-21T08:22:12.595Z,100916.55
2019-04-21T08:24:43.843Z,100919.58
2019-04-21T08:27:12.061Z,100914.65
2019-04-21T08:29:44.677Z,100914.02
2019-04-21T08:32:08.160Z,100911.56
2019-04-21T08:34:49.349Z,100906.28
2019-04-21T08:37:08.629Z,100903.45
2019-04-21T08:39:43.602Z,100906.70
2019-04-21T08:42:03.342Z,100901.52
2019-04-21T08:47:06.049Z,100893.72
2019-04-21T08:49:39.270Z,100895.12
2019-04-21T08:52:28.420Z,100891.16
2019-04-21T08:54:32.325Z,100883.86
2019-04-21T08:57:12.999Z,100879.08
2019-04-21T08:59:45.966Z,100877.84
2019-04-21T09:02:26.054Z,100876.98
2019-04-21T09:04:49.104Z,100884.43
2019-04-21T09:07:21.317Z,100869.06
2019-04-21T09:09:48.383Z,100866.04
2019-04-21T09:12:17.780Z,100870.01
2019-04-21T09:14:41.849Z,100863.00
2019-04-21T09:17:07.168Z,100862.97
2019-04-21T09:19:51.468Z,100857.73
2019-04-21T09:22:12.222Z,100845.03
2019-04-21T09:24:42.824Z,100841.09
2019-04-21T09:27:10.173Z,100846.76
2019-04-21T09:29:31.022Z,100847.22
2019-04-21T09:31:54.484Z,100856.85
2019-04-21T09:34:25.612Z,100845.47
2019-04-21T09:36:54.447Z,100840.13
2019-04-21T09:39:22.626Z,100839.21
2019-04-21T09:41:53.473Z,100835.29
2019-04-21T09:44:25.446Z,100835.33
2019-04-21T09:46:50.602Z,100827.92
2019-04-21T09:49:22.491Z,100825.20
2019-04-21T09:51:46.364Z,100829.14
2019-04-21T09:54:22.354Z,100823.43
2019-04-21T09:56:51.057Z,100818.72
2019-04-21T09:59:20.786Z,100815.61
2019-04-21T10:01:57.500Z,100813.84
2019-04-21T10:04:11.994Z,100811.17
2019-04-21T10:06:39.804Z,100801.50
2019-04-21T10:09:10.225Z,100797.06
2019-04-21T10:11:37.621Z,100809.80
2019-04-21T10:14:05.573Z,100785.22
2019-04-21T10:16:38.610Z,100783.73
2019-04-21T10:19:06.931Z,100776.59
2019-04-21T10:21:35.974Z,100769.61
2019-04-21T10:24:04.156Z,100775.69
2019-04-21T10:26:33.249Z,100771.80
2019-04-21T10:29:08.274Z,100769.64
2019-04-21T10:31:30.424Z,100767.58
2019-04-21T10:33:58.922Z,100763.25
2019-04-21T10:36:26.905Z,100758.29
2019-04-21T10:38:55.736Z,100750.06
2019-04-21T10:41:23.994Z,100752.96
2019-04-21T10:43:51.652Z,100748.86
2019-04-21T10:46:19.311Z,100740.33
2019-04-21T10:48:46.985Z,100742.84
2019-04-21T10:51:14.936Z,100740.03
2019-04-21T10:53:45.032Z,100734.02
2019-04-21T10:56:21.861Z,100740.12
2019-04-21T10:58:44.556Z,100722.37
2019-04-21T11:01:18.835Z,100719.20
2019-04-21T11:03:53.103Z,100722.56
2019-04-21T11:06:21.119Z,100716.36
2019-04-21T11:08:52.182Z,100712.50
2019-04-21T11:11:19.623Z,100710.98
2019-04-21T11:13:48.455Z,100705.20
2019-04-21T11:16:17.248Z,100699.65
2019-04-21T11:18:46.095Z,100707.87
2019-04-21T11:21:13.855Z,100698.37
2019-04-21T11:23:41.501Z,100696.18
2019-04-21T11:26:09.981Z,100696.86
2019-04-21T11:28:38.923Z,100692.22
2019-04-21T11:31:07.049Z,100685.83
2019-04-21T11:33:35.606Z,100674.81
2019-04-21T11:36:03.611Z,100674.28
2019-04-21T11:38:59.780Z,100676.68
2019-04-21T11:41:12.177Z,100669.96
2019-04-21T11:43:41.258Z,100669.77
2019-04-21T11:46:10.658Z,100664.22
2019-04-21T11:48:39.873Z,100653.83
2019-04-21T11:51:08.915Z,100660.63
2019-04-21T11:53:36.990Z,100662.13
2019-04-21T11:56:04.900Z,100654.75
2019-04-21T11:58:33.747Z,100652.88
2019-04-21T12:01:03.340Z,100651.09
2019-04-21T12:03:31.701Z,100650.69
2019-04-21T12:05:59.617Z,100653.60
2019-04-21T12:08:35.034Z,100644.03
2019-04-21T12:10:57.742Z,100643.70
2019-04-21T12:13:25.603Z,100634.60
2019-04-21T12:15:53.275Z,100629.76
2019-04-21T12:18:22.238Z,100629.76
2019-04-21T12:20:51.609Z,100632.14
2019-04-21T12:23:20.452Z,100629.91
2019-04-21T12:25:49.517Z,100635.12
2019-04-21T12:28:17.473Z,100623.84
2019-04-21T12:30:47.373Z,100630.82
2019-04-21T12:33:22.234Z,100625.97
2019-04-21T12:35:51.476Z,100608.92
2019-04-21T12:38:30.177Z,100606.54
2019-04-21T12:40:48.707Z,100604.34
2019-04-21T12:43:16.771Z,100607.69
2019-04-21T12:45:44.605Z,100594.64
2019-04-21T12:48:13.733Z,100593.16
2019-04-21T12:50:41.744Z,100583.03
2019-04-21T12:53:12.598Z,100579.71
2019-04-21T12:55:42.788Z,100581.47
2019-04-21T12:58:08.372Z,100581.67
2019-04-21T13:00:36.778Z,100570.09
2019-04-21T13:03:05.723Z,100564.02
2019-04-21T13:05:33.773Z,100564.02
2019-04-21T13:08:01.703Z,100578.30
2019-04-21T13:10:30.546Z,100579.27
2019-04-21T13:12:59.676Z,100567.52
2019-04-21T13:15:27.504Z,100569.67
2019-04-21T13:17:56.349Z,100564.73
2019-04-21T13:20:25.307Z,100561.47
2019-04-21T13:22:54.335Z,100552.88
2019-04-21T13:25:23.518Z,100560.38
2019-04-21T13:27:52.356Z,100551.95
2019-04-21T13:30:20.226Z,100548.84
2019-04-21T13:32:49.263Z,100544.11
2019-04-21T13:35:17.154Z,100540.59
2019-04-21T13:37:45.815Z,100536.69
2019-04-21T13:40:34.151Z,100526.94
2019-04-21T13:42:54.991Z,100535.03
2019-04-21T13:45:18.414Z,100527.86
2019-04-21T13:47:46.332Z,100528.22
2019-04-21T13:50:15.281Z,100518.36
2019-04-21T13:52:43.054Z,100519.04
2019-04-21T13:55:11.847Z,100511.48
2019-04-21T13:57:40.929Z,100508.33
2019-04-21T14:00:09.034Z,100504.32
2019-04-21T14:02:38.556Z,100505.63
2019-04-21T14:05:08.527Z,100507.09
2019-04-21T14:07:36.455Z,100499.25
2019-04-21T14:10:07.142Z,100499.44
2019-04-21T14:12:33.634Z,100496.85
2019-04-21T14:15:02.302Z,100492.07
2019-04-21T14:17:30.951Z,100495.22
2019-04-21T14:19:59.444Z,100473.34
2019-04-21T14:22:28.305Z,100481.28
2019-04-21T14:24:56.329Z,100475.41
2019-04-21T14:27:24.089Z,100476.23
2019-04-21T14:29:51.731Z,100473.21
2019-04-21T14:32:20.237Z,100458.20
2019-04-21T14:34:50.222Z,100474.42
2019-04-21T14:37:17.400Z,100459.22
2019-04-21T14:39:52.743Z,100469.50
2019-04-21T14:42:14.417Z,100459.16
2019-04-21T14:44:42.934Z,100456.98
2019-04-21T14:47:29.804Z,100456.28
2019-04-21T14:50:22.280Z,100456.28
2019-04-21T14:53:09.997Z,100457.50
2019-04-21T14:55:39.510Z,100452.28
2019-04-21T14:58:07.387Z,100455.22
2019-04-21T15:00:35.199Z,100450.53
2019-04-21T15:03:03.707Z,100448.30
2019-04-21T15:05:31.401Z,100450.41
2019-04-21T15:07:59.375Z,100454.88
2019-04-21T15:10:30.576Z,100448.04
2019-04-21T15:12:56.583Z,100437.52
2019-04-21T15:15:25.565Z,100442.30
2019-04-21T15:17:53.577Z,100442.78
2019-04-21T15:20:22.031Z,100436.38
2019-04-21T15:22:50.671Z,100431.55
2019-04-21T15:25:18.438Z,100437.22
2019-04-21T15:27:46.607Z,100429.84
2019-04-21T15:30:14.465Z,100434.58
2019-04-21T15:32:42.728Z,100428.09
2019-04-21T15:35:11.047Z,100429.75
2019-04-21T15:37:39.877Z,100428.00
2019-04-21T15:40:18.209Z,100435.45
2019-04-21T15:42:37.142Z,100425.38
2019-04-21T15:45:06.289Z,100416.61
2019-04-21T15:47:34.266Z,100414.98
2019-04-21T15:50:07.386Z,100417.56
2019-04-21T15:52:31.877Z,100419.41
2019-04-21T15:55:06.192Z,100412.07
2019-04-21T15:57:43.096Z,100410.42
2019-04-21T16:00:34.808Z,100410.60
2019-04-21T16:03:02.492Z,100405.89
2019-04-21T16:05:30.829Z,100402.31
2019-04-21T16:07:58.553Z,100406.41
2019-04-21T16:10:34.337Z,100406.41
2019-04-21T16:12:56.043Z,100395.38
2019-04-21T16:15:23.915Z,100394.46
2019-04-21T16:17:53.094Z,100386.66
2019-04-21T16:20:21.850Z,100383.16
2019-04-21T16:22:50.620Z,100389.84
2019-04-21T16:25:18.838Z,100387.17
2019-04-21T16:27:47.659Z,100380.68
2019-04-21T16:30:15.686Z,100378.84
2019-04-21T16:32:43.993Z,100382.36
2019-04-21T16:35:14.311Z,100381.55
2019-04-21T16:37:41.626Z,100381.62
2019-04-21T16:40:09.574Z,100378.63
2019-04-21T16:42:38.456Z,100379.95
2019-04-21T16:45:07.292Z,100375.53
2019-04-21T16:47:35.866Z,100380.48
2019-04-21T16:50:03.610Z,100373.04
2019-04-21T16:52:40.301Z,100369.91
2019-04-21T16:55:16.889Z,100373.07
2019-04-21T16:57:59.482Z,100367.81
2019-04-21T17:00:31.236Z,100366.09
2019-04-21T17:02:52.472Z,100363.30
2019-04-21T17:05:20.393Z,100363.95
2019-04-21T17:07:49.224Z,100362.59
2019-04-21T17:10:17.076Z,100359.53
2019-04-21T17:12:45.553Z,100362.64
2019-04-21T17:15:29.379Z,100356.63
2019-04-21T17:18:04.194Z,100360.97
2019-04-21T17:20:25.075Z,100352.28
2019-04-21T17:22:41.785Z,100351.84
2019-04-21T17:25:10.537Z,100348.78
2019-04-21T17:27:39.002Z,100348.84
2019-04-21T17:30:06.842Z,100348.41
2019-04-21T17:32:38.753Z,100348.52
2019-04-21T17:35:04.066Z,100351.98
2019-04-21T17:37:32.457Z,100348.11
2019-04-21T17:40:03.430Z,100349.94
2019-04-21T17:42:36.416Z,100352.97
2019-04-21T17:44:59.409Z,100347.80
2019-04-21T17:47:39.420Z,100349.64
2019-04-21T17:50:04.276Z,100343.62
2019-04-21T17:52:43.778Z,100343.65
2019-04-21T17:55:19.792Z,100342.85
2019-04-21T17:57:59.418Z,100346.00
2019-04-21T18:00:53.532Z,100346.85
2019-04-21T18:02:58.989Z,100345.52
2019-04-21T18:05:32.023Z,100345.15
2019-04-21T18:07:54.573Z,100343.84
2019-04-21T18:10:29.365Z,100345.20
2019-04-21T18:12:49.153Z,100348.84
2019-04-21T18:15:22.035Z,100341.86
2019-04-21T18:17:36.652Z,100350.17
2019-04-21T18:20:05.981Z,100349.27
2019-04-21T18:22:47.469Z,100350.58
2019-04-21T18:25:28.022Z,100353.61
2019-04-21T18:27:44.902Z,100347.93
2019-04-21T18:30:12.859Z,100343.86
2019-04-21T18:32:42.472Z,100338.02
2019-04-21T18:35:20.565Z,100348.44
2019-04-21T18:38:04.536Z,100351.61
2019-04-21T18:40:29.718Z,100350.14
2019-04-21T18:43:38.710Z,100345.39
2019-04-21T18:46:03.573Z,100347.58
2019-04-21T18:48:32.786Z,100347.58
2019-04-21T18:51:06.255Z,100347.62
2019-04-21T18:53:50.317Z,100347.08
2019-04-21T18:56:06.536Z,100347.84
2019-04-21T18:58:32.905Z,100348.38
2019-04-21T19:01:08.801Z,100352.91
2019-04-21T19:03:36.735Z,100353.73
2019-04-21T19:06:08.144Z,100353.02
2019-04-21T19:08:46.594Z,100354.38
2019-04-21T19:11:18.993Z,100349.94
2019-04-21T19:13:59.929Z,100356.56
2019-04-21T19:19:01.607Z,100352.78
2019-04-21T19:21:17.439Z,100350.77
2019-04-21T19:23:52.148Z,100352.69
2019-04-21T19:26:40.884Z,100354.74
2019-04-21T19:28:58.800Z,100353.58
2019-04-21T19:31:17.280Z,100350.73
2019-04-21T19:33:36.432Z,100354.08
2019-04-21T19:35:57.522Z,100354.08
2019-04-21T19:38:35.027Z,100350.30
2019-04-21T19:41:12.780Z,100350.13
2019-04-21T19:43:46.019Z,100350.43
2019-04-21T19:46:09.658Z,100350.43
2019-04-21T19:48:44.461Z,100345.84
2019-04-21T19:51:10.575Z,100338.09
2019-04-21T19:53:37.129Z,100341.05
2019-04-21T19:55:51.999Z,100345.13
2019-04-21T19:58:27.560Z,100342.20
2019-04-21T20:00:52.256Z,100339.44
2019-04-21T20:03:18.771Z,100342.73
2019-04-21T20:05:54.806Z,100345.50
2019-04-21T20:08:31.957Z,100342.53
2019-04-21T20:11:03.989Z,100338.47
2019-04-21T20:13:45.370Z,100339.38
2019-04-21T20:16:03.756Z,100334.42
2019-04-21T20:18:23.174Z,100334.42
2019-04-21T20:20:43.859Z,100343.47
2019-04-21T20:23:18.764Z,100335.67
2019-04-21T20:25:48.465Z,100336.46
2019-04-21T20:28:21.389Z,100339.80
2019-04-21T20:30:59.604Z,100348.15
2019-04-21T20:33:48.501Z,100347.27
2019-04-21T20:36:03.327Z,100344.73
2019-04-21T20:38:19.074Z,100349.00
2019-04-21T20:40:45.799Z,100345.55
2019-04-21T20:43:28.502Z,100335.89
2019-04-21T21:00:31.846Z,100343.52
2019-04-21T21:03:01.169Z,100343.56
2019-04-21T21:05:23.397Z,100348.55
2019-04-21T21:07:57.006Z,100348.75
2019-04-21T21:10:27.977Z,100349.36
2019-04-21T21:13:07.580Z,100349.05
2019-04-21T21:15:24.590Z,100352.66
2019-04-21T21:18:01.409Z,100352.08
2019-04-21T21:20:27.514Z,100357.62
2019-04-21T21:22:50.656Z,100354.55
2019-04-21T21:25:30.518Z,100354.84
2019-04-21T21:27:45.165Z,100356.20
2019-04-21T21:30:18.637Z,100356.33
2019-04-21T21:32:49.378Z,100338.87
2019-04-21T21:35:18.992Z,100350.02
2019-04-21T21:37:54.884Z,100349.59
2019-04-21T21:40:21.905Z,100355.41
2019-04-21T21:42:35.347Z,100352.37
2019-04-21T21:45:04.895Z,100352.37
2019-04-21T21:47:47.556Z,100350.59
2019-04-21T21:50:10.021Z,100350.28
2019-04-21T21:52:39.799Z,100346.88
2019-04-21T21:54:58.208Z,100343.05
2019-04-21T21:57:26.164Z,100347.13
2019-04-21T21:59:58.859Z,100347.34
2019-04-21T22:02:33.086Z,100341.63
2019-04-21T22:05:01.163Z,100337.73
2019-04-21T22:07:26.913Z,100342.27
2019-04-21T22:09:52.447Z,100337.84
2019-04-21T22:12:20.315Z,100335.84
2019-04-21T22:14:50.453Z,100339.09
2019-04-21T22:17:32.769Z,100337.52
2019-04-21T22:20:12.237Z,100338.62
2019-04-21T22:22:32.539Z,100336.31
2019-04-21T22:24:55.685Z,100329.83
2019-04-21T22:27:14.931Z,100335.78
2019-04-21T22:29:48.222Z,100331.81
2019-04-21T22:32:17.466Z,100326.03
2019-04-21T22:34:48.698Z,100323.09
2019-04-21T22:37:25.946Z,100334.20
2019-04-21T22:39:54.351Z,100325.30
2019-04-21T22:42:17.938Z,100329.44
2019-04-21T22:44:40.343Z,100330.88
2019-04-21T22:47:15.674Z,100328.36
2019-04-21T22:49:38.774Z,100328.84
2019-04-21T22:52:11.075Z,100331.95
2019-04-21T22:54:40.919Z,100325.68
2019-04-21T22:57:12.896Z,100325.68
2019-04-21T22:59:35.637Z,100325.59
2019-04-21T23:02:06.370Z,100331.41
2019-04-21T23:04:43.130Z,100326.60
2019-04-21T23:07:11.268Z,100335.11
2019-04-21T23:09:32.925Z,100330.47
2019-04-21T23:12:01.903Z,100329.38
2019-04-21T23:14:33.943Z,100325.97
2019-04-21T23:17:22.944Z,100326.15
2019-04-21T23:19:42.217Z,100328.23
2019-04-21T23:22:16.137Z,100331.79
2019-04-21T23:24:59.532Z,100328.00
2019-04-21T23:27:11.879Z,100323.88
2019-04-21T23:29:52.807Z,100331.59
2019-04-21T23:32:14.931Z,100328.41
2019-04-21T23:34:30.787Z,100325.44
2019-04-21T23:37:04.392Z,100331.03
2019-04-21T23:39:29.005Z,100321.84
2019-04-21T23:41:56.954Z,100324.89
2019-04-21T23:44:24.119Z,100327.16
2019-04-21T23:46:57.583Z,100323.27
2019-04-21T23:49:34.558Z,100324.11
2019-04-21T23:52:00.347Z,100315.94
2019-04-21T23:54:20.304Z,100312.16
2019-04-21T23:56:49.255Z,100312.52
2019-04-21T23:59:18.045Z,100308.82
